sensor_id;sensor_type;location;lat;lon;timestamp;pressure;altitude;pressure_sealevel;temperature;humidity
22004;BME280;11166;48.692;8.182;2023-02-18T00:02:11;99788.13;;;12.62;86.20
22004;BME280;11166;48.692;8.182;2023-02-18T00:04:36;99782.28;;;12.60;85.95
22004;BME280;11166;48.692;8.182;2023-02-18T00:07:02;99784.09;;;12.60;86.02
22004;BME280;11166;48.692;8.182;2023-02-18T00:09:27;99791.44;;;12.71;84.54
22004;BME280;11166;48.692;8.182;2023-02-18T00:11:53;99794.66;;;12.73;85.20
22004;BME280;11166;48.692;8.182;2023-02-18T00:14:18;99782.19;;;12.68;85.29
22004;BME280;11166;48.692;8.182;2023-02-18T00:16:44;99781.75;;;12.65;85.47
22004;BME280;11166;48.692;8.182;2023-02-18T00:19:15;99788.56;;;12.66;85.40
22004;BME280;11166;48.692;8.182;2023-02-18T00:21:41;99789.81;;;12.70;85.01
22004;BME280;11166;48.692;8.182;2023-02-18T00:24:08;99781.13;;;12.63;85.69
22004;BME280;11166;48.692;8.182;2023-02-18T00:26:34;99787.50;;;12.60;85.96
22004;BME280;11166;48.692;8.182;2023-02-18T00:29:00;99775.66;;;12.58;85.85
22004;BME280;11166;48.692;8.182;2023-02-18T00:31:28;99774.38;;;12.68;85.06
22004;BME280;11166;48.692;8.182;2023-02-18T00:33:56;99778.16;;;12.66;84.78
22004;BME280;11166;48.692;8.182;2023-02-18T00:36:22;99766.50;;;12.62;85.26
22004;BME280;11166;48.692;8.182;2023-02-18T00:38:53;99769.09;;;12.62;85.20
22004;BME280;11166;48.692;8.182;2023-02-18T00:41:19;99766.44;;;12.55;85.81
22004;BME280;11166;48.692;8.182;2023-02-18T00:43:44;99772.28;;;12.57;85.65
22004;BME280;11166;48.692;8.182;2023-02-18T00:46:10;99756.53;;;12.65;85.23
22004;BME280;11166;48.692;8.182;2023-02-18T00:48:36;99757.44;;;12.58;85.34
22004;BME280;11166;48.692;8.182;2023-02-18T00:51:02;99763.66;;;12.57;84.51
22004;BME280;11166;48.692;8.182;2023-02-18T00:53:28;99755.09;;;12.63;84.35
22004;BME280;11166;48.692;8.182;2023-02-18T00:55:54;99751.75;;;12.69;83.68
22004;BME280;11166;48.692;8.182;2023-02-18T00:58:19;99754.59;;;12.74;82.96
22004;BME280;11166;48.692;8.182;2023-02-18T01:00:45;99757.81;;;12.76;82.65
22004;BME280;11166;48.692;8.182;2023-02-18T01:03:10;99762.41;;;12.74;82.65
22004;BME280;11166;48.692;8.182;2023-02-18T01:05:37;99755.22;;;12.76;82.72
22004;BME280;11166;48.692;8.182;2023-02-18T01:08:04;99750.63;;;12.78;82.42
22004;BME280;11166;48.692;8.182;2023-02-18T01:10:30;99753.25;;;12.78;82.25
22004;BME280;11166;48.692;8.182;2023-02-18T01:12:55;99744.00;;;12.75;82.77
22004;BME280;11166;48.692;8.182;2023-02-18T01:15:21;99752.25;;;12.79;82.75
22004;BME280;11166;48.692;8.182;2023-02-18T01:17:46;99742.28;;;12.82;82.67
22004;BME280;11166;48.692;8.182;2023-02-18T01:20:12;99744.69;;;12.84;82.58
22004;BME280;11166;48.692;8.182;2023-02-18T01:22:38;99744.06;;;12.82;82.60
22004;BME280;11166;48.692;8.182;2023-02-18T01:25:04;99732.97;;;12.73;83.22
22004;BME280;11166;48.692;8.182;2023-02-18T01:27:30;99736.38;;;12.74;83.45
22004;BME280;11166;48.692;8.182;2023-02-18T01:29:55;99733.41;;;12.77;83.53
22004;BME280;11166;48.692;8.182;2023-02-18T01:32:21;99735.75;;;12.72;83.84
22004;BME280;11166;48.692;8.182;2023-02-18T01:34:46;99748.56;;;12.73;84.00
22004;BME280;11166;48.692;8.182;2023-02-18T01:37:12;99737.75;;;12.70;84.51
22004;BME280;11166;48.692;8.182;2023-02-18T01:39:38;99739.91;;;12.66;84.44
22004;BME280;11166;48.692;8.182;2023-02-18T01:42:03;99735.25;;;12.62;84.73
22004;BME280;11166;48.692;8.182;2023-02-18T01:44:29;99736.41;;;12.59;85.03
22004;BME280;11166;48.692;8.182;2023-02-18T01:46:54;99738.94;;;12.67;84.78
22004;BME280;11166;48.692;8.182;2023-02-18T01:49:29;99736.50;;;12.66;84.46
22004;BME280;11166;48.692;8.182;2023-02-18T01:52:05;99723.75;;;12.71;84.00
22004;BME280;11166;48.692;8.182;2023-02-18T01:54:33;99731.34;;;12.72;84.19
22004;BME280;11166;48.692;8.182;2023-02-18T01:57:15;99728.94;;;12.71;84.31
22004;BME280;11166;48.692;8.182;2023-02-18T02:00:11;99743.31;;;12.67;84.85
22004;BME280;11166;48.692;8.182;2023-02-18T02:02:39;99732.53;;;12.70;84.29
22004;BME280;11166;48.692;8.182;2023-02-18T02:05:06;99739.09;;;12.66;84.33
22004;BME280;11166;48.692;8.182;2023-02-18T02:07:32;99736.50;;;12.66;84.59
22004;BME280;11166;48.692;8.182;2023-02-18T02:09:58;99723.94;;;12.69;84.48
22004;BME280;11166;48.692;8.182;2023-02-18T02:18:45;99718.00;;;12.61;84.37
22004;BME280;11166;48.692;8.182;2023-02-18T02:21:34;99724.38;;;12.58;85.03
22004;BME280;11166;48.692;8.182;2023-02-18T02:27:21;99710.69;;;12.50;85.94
22004;BME280;11166;48.692;8.182;2023-02-18T02:35:17;99722.47;;;12.45;86.15
22004;BME280;11166;48.692;8.182;2023-02-18T02:38:02;99722.84;;;12.42;86.81
22004;BME280;11166;48.692;8.182;2023-02-18T02:45:58;99717.88;;;12.48;85.20
22004;BME280;11166;48.692;8.182;2023-02-18T02:48:36;99695.25;;;12.48;85.68
22004;BME280;11166;48.692;8.182;2023-02-18T02:51:08;99718.88;;;12.46;85.04
22004;BME280;11166;48.692;8.182;2023-02-18T02:53:36;99708.72;;;12.52;84.53
22004;BME280;11166;48.692;8.182;2023-02-18T02:56:02;99715.72;;;12.51;84.54
22004;BME280;11166;48.692;8.182;2023-02-18T02:58:27;99714.91;;;12.51;84.50
22004;BME280;11166;48.692;8.182;2023-02-18T03:01:19;99713.94;;;12.52;84.40
22004;BME280;11166;48.692;8.182;2023-02-18T03:04:03;99708.34;;;12.55;83.99
22004;BME280;11166;48.692;8.182;2023-02-18T03:09:42;99697.25;;;12.46;84.36
22004;BME280;11166;48.692;8.182;2023-02-18T03:17:45;99683.69;;;12.51;83.44
22004;BME280;11166;48.692;8.182;2023-02-18T03:20:40;99681.88;;;12.51;83.75
22004;BME280;11166;48.692;8.182;2023-02-18T03:23:10;99671.66;;;12.50;84.39
22004;BME280;11166;48.692;8.182;2023-02-18T03:25:39;99663.00;;;12.42;84.34
22004;BME280;11166;48.692;8.182;2023-02-18T03:28:12;99661.13;;;12.36;84.50
22004;BME280;11166;48.692;8.182;2023-02-18T03:30:49;99647.38;;;12.42;83.56
22004;BME280;11166;48.692;8.182;2023-02-18T03:33:32;99653.78;;;12.46;83.80
22004;BME280;11166;48.692;8.182;2023-02-18T03:35:59;99646.72;;;12.62;82.24
22004;BME280;11166;48.692;8.182;2023-02-18T03:38:32;99645.47;;;12.58;82.80
22004;BME280;11166;48.692;8.182;2023-02-18T03:40:59;99650.69;;;12.58;82.55
22004;BME280;11166;48.692;8.182;2023-02-18T03:43:24;99633.50;;;12.57;82.44
22004;BME280;11166;48.692;8.182;2023-02-18T03:45:50;99646.69;;;12.55;83.07
22004;BME280;11166;48.692;8.182;2023-02-18T03:48:15;99643.03;;;12.50;83.67
22004;BME280;11166;48.692;8.182;2023-02-18T03:50:40;99643.56;;;12.45;84.04
22004;BME280;11166;48.692;8.182;2023-02-18T03:53:06;99647.97;;;12.44;84.20
22004;BME280;11166;48.692;8.182;2023-02-18T03:55:31;99637.31;;;12.39;84.80
22004;BME280;11166;48.692;8.182;2023-02-18T03:57:56;99640.59;;;12.48;84.34
22004;BME280;11166;48.692;8.182;2023-02-18T04:00:22;99636.19;;;12.49;83.86
22004;BME280;11166;48.692;8.182;2023-02-18T04:02:47;99631.97;;;12.48;84.13
22004;BME280;11166;48.692;8.182;2023-02-18T04:05:13;99630.38;;;12.46;84.69
22004;BME280;11166;48.692;8.182;2023-02-18T04:07:38;99627.78;;;12.46;84.72
22004;BME280;11166;48.692;8.182;2023-02-18T04:10:04;99639.78;;;12.48;84.78
22004;BME280;11166;48.692;8.182;2023-02-18T04:12:30;99646.63;;;12.49;84.86
22004;BME280;11166;48.692;8.182;2023-02-18T04:14:55;99638.56;;;12.43;85.47
22004;BME280;11166;48.692;8.182;2023-02-18T04:17:21;99647.06;;;12.52;84.99
22004;BME280;11166;48.692;8.182;2023-02-18T04:19:46;99638.44;;;12.52;84.84
22004;BME280;11166;48.692;8.182;2023-02-18T04:22:11;99642.41;;;12.48;85.48
22004;BME280;11166;48.692;8.182;2023-02-18T04:24:37;99643.16;;;12.41;85.72
22004;BME280;11166;48.692;8.182;2023-02-18T04:27:02;99646.75;;;12.40;86.15
22004;BME280;11166;48.692;8.182;2023-02-18T04:29:28;99655.53;;;12.39;86.27
22004;BME280;11166;48.692;8.182;2023-02-18T04:31:53;99652.56;;;12.42;86.57
22004;BME280;11166;48.692;8.182;2023-02-18T04:34:18;99649.16;;;12.42;86.33
22004;BME280;11166;48.692;8.182;2023-02-18T04:36:43;99655.53;;;12.39;86.80
22004;BME280;11166;48.692;8.182;2023-02-18T04:39:09;99653.94;;;12.38;86.75
22004;BME280;11166;48.692;8.182;2023-02-18T04:41:34;99662.09;;;12.35;87.12
22004;BME280;11166;48.692;8.182;2023-02-18T04:43:59;99663.72;;;12.36;87.08
22004;BME280;11166;48.692;8.182;2023-02-18T04:46:25;99666.59;;;12.41;87.27
22004;BME280;11166;48.692;8.182;2023-02-18T04:48:51;99661.38;;;12.41;87.52
22004;BME280;11166;48.692;8.182;2023-02-18T04:51:16;99654.13;;;12.37;87.42
22004;BME280;11166;48.692;8.182;2023-02-18T04:53:41;99659.69;;;12.34;87.58
22004;BME280;11166;48.692;8.182;2023-02-18T04:56:07;99641.91;;;12.37;87.08
22004;BME280;11166;48.692;8.182;2023-02-18T04:58:32;99633.13;;;12.38;86.86
22004;BME280;11166;48.692;8.182;2023-02-18T05:00:59;99637.06;;;12.34;87.18
22004;BME280;11166;48.692;8.182;2023-02-18T05:03:26;99630.88;;;12.35;86.68
22004;BME280;11166;48.692;8.182;2023-02-18T05:05:52;99639.31;;;12.37;86.94
22004;BME280;11166;48.692;8.182;2023-02-18T05:08:17;99624.69;;;12.36;87.33
22004;BME280;11166;48.692;8.182;2023-02-18T05:10:43;99633.72;;;12.40;87.05
22004;BME280;11166;48.692;8.182;2023-02-18T05:13:09;99628.91;;;12.37;86.91
22004;BME280;11166;48.692;8.182;2023-02-18T05:15:34;99624.06;;;12.34;87.05
22004;BME280;11166;48.692;8.182;2023-02-18T05:17:59;99633.13;;;12.38;87.38
22004;BME280;11166;48.692;8.182;2023-02-18T05:20:24;99624.88;;;12.35;87.42
22004;BME280;11166;48.692;8.182;2023-02-18T05:22:50;99621.00;;;12.31;87.66
22004;BME280;11166;48.692;8.182;2023-02-18T05:25:15;99610.81;;;12.29;87.81
22004;BME280;11166;48.692;8.182;2023-02-18T05:27:40;99621.78;;;12.25;87.46
22004;BME280;11166;48.692;8.182;2023-02-18T05:30:06;99605.34;;;12.24;86.97
22004;BME280;11166;48.692;8.182;2023-02-18T05:32:32;99610.25;;;12.34;86.15
22004;BME280;11166;48.692;8.182;2023-02-18T05:34:57;99600.28;;;12.37;85.64
22004;BME280;11166;48.692;8.182;2023-02-18T05:37:22;99602.88;;;12.37;85.48
22004;BME280;11166;48.692;8.182;2023-02-18T05:39:48;99589.84;;;12.37;85.24
22004;BME280;11166;48.692;8.182;2023-02-18T05:42:13;99604.34;;;12.46;84.25
22004;BME280;11166;48.692;8.182;2023-02-18T05:44:38;99603.47;;;12.61;83.42
22004;BME280;11166;48.692;8.182;2023-02-18T05:47:09;99598.84;;;12.56;83.13
22004;BME280;11166;48.692;8.182;2023-02-18T05:49:35;99611.41;;;12.53;83.15
22004;BME280;11166;48.692;8.182;2023-02-18T05:52:00;99609.03;;;12.58;82.72
22004;BME280;11166;48.692;8.182;2023-02-18T05:54:26;99609.81;;;12.52;83.41
22004;BME280;11166;48.692;8.182;2023-02-18T05:56:53;99610.34;;;12.47;83.86
22004;BME280;11166;48.692;8.182;2023-02-18T05:59:18;99614.13;;;12.44;83.73
22004;BME280;11166;48.692;8.182;2023-02-18T06:01:46;99617.34;;;12.46;83.27
22004;BME280;11166;48.692;8.182;2023-02-18T06:04:12;99624.19;;;12.48;83.66
22004;BME280;11166;48.692;8.182;2023-02-18T06:06:37;99614.53;;;12.41;84.06
22004;BME280;11166;48.692;8.182;2023-02-18T06:09:04;99611.31;;;12.39;84.43
22004;BME280;11166;48.692;8.182;2023-02-18T06:11:30;99607.09;;;12.38;84.38
22004;BME280;11166;48.692;8.182;2023-02-18T06:13:56;99631.75;;;12.42;84.06
22004;BME280;11166;48.692;8.182;2023-02-18T06:16:22;99623.94;;;12.42;83.94
22004;BME280;11166;48.692;8.182;2023-02-18T06:18:47;99632.16;;;12.46;83.72
22004;BME280;11166;48.692;8.182;2023-02-18T06:21:13;99627.78;;;12.46;83.25
22004;BME280;11166;48.692;8.182;2023-02-18T06:23:38;99633.97;;;12.45;83.29
22004;BME280;11166;48.692;8.182;2023-02-18T06:26:03;99619.72;;;12.41;83.58
22004;BME280;11166;48.692;8.182;2023-02-18T06:28:29;99623.94;;;12.42;83.29
22004;BME280;11166;48.692;8.182;2023-02-18T06:30:54;99632.56;;;12.43;82.89
22004;BME280;11166;48.692;8.182;2023-02-18T06:33:19;99626.91;;;12.39;83.33
22004;BME280;11166;48.692;8.182;2023-02-18T06:35:58;99611.13;;;12.41;82.47
22004;BME280;11166;48.692;8.182;2023-02-18T06:38:25;99608.94;;;12.44;81.96
22004;BME280;11166;48.692;8.182;2023-02-18T06:40:51;99613.94;;;12.46;81.43
22004;BME280;11166;48.692;8.182;2023-02-18T06:43:17;99621.22;;;12.51;81.07
22004;BME280;11166;48.692;8.182;2023-02-18T06:45:42;99637.81;;;12.50;81.73
22004;BME280;11166;48.692;8.182;2023-02-18T06:48:08;99630.06;;;12.56;80.96
22004;BME280;11166;48.692;8.182;2023-02-18T06:50:33;99638.44;;;12.52;81.33
22004;BME280;11166;48.692;8.182;2023-02-18T06:52:58;99640.69;;;12.55;81.27
22004;BME280;11166;48.692;8.182;2023-02-18T06:55:24;99650.66;;;12.51;82.01
22004;BME280;11166;48.692;8.182;2023-02-18T06:57:50;99634.22;;;12.51;82.12
22004;BME280;11166;48.692;8.182;2023-02-18T07:00:15;99646.97;;;12.45;82.60
22004;BME280;11166;48.692;8.182;2023-02-18T07:02:41;99639.34;;;12.44;82.70
22004;BME280;11166;48.692;8.182;2023-02-18T07:05:06;99647.97;;;12.44;82.36
22004;BME280;11166;48.692;8.182;2023-02-18T07:07:32;99645.19;;;12.46;82.59
22004;BME280;11166;48.692;8.182;2023-02-18T07:09:57;99648.59;;;12.46;82.23
22004;BME280;11166;48.692;8.182;2023-02-18T07:12:22;99648.31;;;12.56;81.69
22004;BME280;11166;48.692;8.182;2023-02-18T07:14:48;99651.44;;;12.52;82.37
22004;BME280;11166;48.692;8.182;2023-02-18T07:17:13;99650.19;;;12.48;82.77
22004;BME280;11166;48.692;8.182;2023-02-18T07:19:39;99657.78;;;12.42;82.37
22004;BME280;11166;48.692;8.182;2023-02-18T07:22:04;99679.31;;;12.58;81.34
22004;BME280;11166;48.692;8.182;2023-02-18T07:24:29;99654.91;;;12.59;81.05
22004;BME280;11166;48.692;8.182;2023-02-18T07:26:55;99661.09;;;12.58;82.49
22004;BME280;11166;48.692;8.182;2023-02-18T07:29:20;99634.22;;;12.51;82.45
22004;BME280;11166;48.692;8.182;2023-02-18T07:31:45;99638.44;;;12.52;82.48
22004;BME280;11166;48.692;8.182;2023-02-18T07:34:11;99626.22;;;12.52;82.44
22004;BME280;11166;48.692;8.182;2023-02-18T07:36:36;99618.59;;;12.51;82.55
22004;BME280;11166;48.692;8.182;2023-02-18T07:39:02;99623.81;;;12.51;82.30
22004;BME280;11166;48.692;8.182;2023-02-18T07:41:27;99629.00;;;12.51;82.62
22004;BME280;11166;48.692;8.182;2023-02-18T07:43:53;99611.84;;;12.56;81.85
22004;BME280;11166;48.692;8.182;2023-02-18T07:46:18;99628.66;;;12.54;82.36
22004;BME280;11166;48.692;8.182;2023-02-18T07:48:43;99617.06;;;12.56;81.65
22004;BME280;11166;48.692;8.182;2023-02-18T07:51:10;99621.47;;;12.56;82.23
22004;BME280;11166;48.692;8.182;2023-02-18T07:53:36;99623.44;;;12.54;82.19
22004;BME280;11166;48.692;8.182;2023-02-18T07:56:02;99621.84;;;12.53;82.50
22004;BME280;11166;48.692;8.182;2023-02-18T07:58:30;99607.63;;;12.55;82.41
22004;BME280;11166;48.692;8.182;2023-02-18T08:00:57;99611.06;;;12.56;82.23
22004;BME280;11166;48.692;8.182;2023-02-18T08:03:25;99610.25;;;12.55;82.42
22004;BME280;11166;48.692;8.182;2023-02-18T08:05:52;99621.69;;;12.61;81.77
22004;BME280;11166;48.692;8.182;2023-02-18T08:08:20;99613.06;;;12.60;82.30
22004;BME280;11166;48.692;8.182;2023-02-18T08:10:46;99613.88;;;12.61;81.77
22004;BME280;11166;48.692;8.182;2023-02-18T08:13:12;99623.91;;;12.64;82.05
22004;BME280;11166;48.692;8.182;2023-02-18T08:15:38;99615.38;;;12.70;80.99
22004;BME280;11166;48.692;8.182;2023-02-18T08:18:04;99610.75;;;12.72;81.08
22004;BME280;11166;48.692;8.182;2023-02-18T08:20:30;99622.78;;;12.73;81.09
22004;BME280;11166;48.692;8.182;2023-02-18T08:22:55;99617.56;;;12.73;81.92
22004;BME280;11166;48.692;8.182;2023-02-18T08:25:20;99620.81;;;12.75;81.86
22004;BME280;11166;48.692;8.182;2023-02-18T08:27:46;99604.81;;;12.78;81.86
22004;BME280;11166;48.692;8.182;2023-02-18T08:30:11;99617.28;;;12.82;81.15
22004;BME280;11166;48.692;8.182;2023-02-18T08:32:37;99631.69;;;12.85;81.50
22004;BME280;11166;48.692;8.182;2023-02-18T08:35:03;99618.47;;;12.87;82.07
22004;BME280;11166;48.692;8.182;2023-02-18T08:37:28;99634.91;;;12.87;81.32
22004;BME280;11166;48.692;8.182;2023-02-18T08:39:53;99640.13;;;12.87;82.01
22004;BME280;11166;48.692;8.182;2023-02-18T08:42:19;99619.28;;;12.87;81.56
22004;BME280;11166;48.692;8.182;2023-02-18T08:44:44;99635.53;;;12.89;81.27
22004;BME280;11166;48.692;8.182;2023-02-18T08:47:10;99622.88;;;12.86;82.40
22004;BME280;11166;48.692;8.182;2023-02-18T08:49:35;99627.28;;;12.86;82.29
22004;BME280;11166;48.692;8.182;2023-02-18T08:52:04;99622.88;;;12.86;82.28
22004;BME280;11166;48.692;8.182;2023-02-18T08:54:30;99611.72;;;12.92;81.61
22004;BME280;11166;48.692;8.182;2023-02-18T08:56:56;99612.97;;;12.96;82.16
22004;BME280;11166;48.692;8.182;2023-02-18T08:59:23;99620.78;;;12.96;81.99
22004;BME280;11166;48.692;8.182;2023-02-18T09:01:48;99602.09;;;12.93;82.88
22004;BME280;11166;48.692;8.182;2023-02-18T09:04:13;99599.31;;;12.94;82.40
22004;BME280;11166;48.692;8.182;2023-02-18T09:06:39;99620.16;;;12.94;81.76
22004;BME280;11166;48.692;8.182;2023-02-18T09:09:04;99633.91;;;12.88;83.13
22004;BME280;11166;48.692;8.182;2023-02-18T09:11:30;99620.91;;;12.88;83.02
22004;BME280;11166;48.692;8.182;2023-02-18T09:13:55;99616.94;;;12.92;83.32
22004;BME280;11166;48.692;8.182;2023-02-18T09:16:21;99611.09;;;12.90;83.39
22004;BME280;11166;48.692;8.182;2023-02-18T09:18:47;99621.75;;;12.95;82.31
22004;BME280;11166;48.692;8.182;2023-02-18T09:21:14;99639.75;;;12.90;83.64
22004;BME280;11166;48.692;8.182;2023-02-18T09:23:40;99620.53;;;12.91;82.09
22004;BME280;11166;48.692;8.182;2023-02-18T09:26:09;99618.91;;;12.90;82.86
22004;BME280;11166;48.692;8.182;2023-02-18T09:28:35;99610.91;;;12.92;82.30
22004;BME280;11166;48.692;8.182;2023-02-18T09:31:10;99615.69;;;12.88;82.46
22004;BME280;11166;48.692;8.182;2023-02-18T09:33:38;99597.09;;;12.91;82.95
22004;BME280;11166;48.692;8.182;2023-02-18T09:36:04;99591.50;;;12.94;82.09
22004;BME280;11166;48.692;8.182;2023-02-18T09:38:30;99595.75;;;13.02;81.65
22004;BME280;11166;48.692;8.182;2023-02-18T09:40:56;99576.13;;;13.06;81.21
22004;BME280;11166;48.692;8.182;2023-02-18T09:43:31;99572.91;;;13.04;80.16
22004;BME280;11166;48.692;8.182;2023-02-18T09:45:58;99568.94;;;13.08;81.14
22004;BME280;11166;48.692;8.182;2023-02-18T09:48:27;99571.75;;;13.13;81.48
22004;BME280;11166;48.692;8.182;2023-02-18T09:50:55;99577.22;;;13.18;80.67
22004;BME280;11166;48.692;8.182;2023-02-18T09:53:21;99580.28;;;13.22;79.65
22004;BME280;11166;48.692;8.182;2023-02-18T09:55:48;99581.25;;;13.21;80.30
22004;BME280;11166;48.692;8.182;2023-02-18T09:58:24;99593.91;;;13.24;80.53
22004;BME280;11166;48.692;8.182;2023-02-18T10:03:29;99597.72;;;13.21;80.52
22004;BME280;11166;48.692;8.182;2023-02-18T10:06:04;99608.31;;;13.20;80.38
22004;BME280;11166;48.692;8.182;2023-02-18T10:08:43;99622.34;;;13.19;79.50
22004;BME280;11166;48.692;8.182;2023-02-18T10:11:16;99606.13;;;13.23;80.24
22004;BME280;11166;48.692;8.182;2023-02-18T10:13:43;99622.97;;;13.27;80.03
22004;BME280;11166;48.692;8.182;2023-02-18T10:16:08;99611.38;;;13.30;78.23
22004;BME280;11166;48.692;8.182;2023-02-18T10:18:41;99617.59;;;13.29;79.06
22004;BME280;11166;48.692;8.182;2023-02-18T10:21:14;99622.22;;;13.33;79.35
22004;BME280;11166;48.692;8.182;2023-02-18T10:23:52;99607.19;;;13.35;78.92
22004;BME280;11166;48.692;8.182;2023-02-18T10:26:19;99610.00;;;13.34;79.11
22004;BME280;11166;48.692;8.182;2023-02-18T10:28:45;99613.59;;;13.33;79.91
22004;BME280;11166;48.692;8.182;2023-02-18T10:31:35;99610.63;;;13.36;80.05
22004;BME280;11166;48.692;8.182;2023-02-18T10:37:11;99617.03;;;13.40;78.63
22004;BME280;11166;48.692;8.182;2023-02-18T10:39:59;99613.78;;;13.31;80.46
22004;BME280;11166;48.692;8.182;2023-02-18T10:47:56;99584.38;;;13.44;79.36
22004;BME280;11166;48.692;8.182;2023-02-18T10:50:29;99600.63;;;13.46;80.23
22004;BME280;11166;48.692;8.182;2023-02-18T10:52:58;99596.03;;;13.48;79.63
22004;BME280;11166;48.692;8.182;2023-02-18T10:55:38;99593.22;;;13.49;78.95
22004;BME280;11166;48.692;8.182;2023-02-18T10:58:23;99594.00;;;13.43;80.03
22004;BME280;11166;48.692;8.182;2023-02-18T11:00:49;99589.97;;;13.41;79.15
22004;BME280;11166;48.692;8.182;2023-02-18T11:03:17;99594.00;;;13.43;79.69
22004;BME280;11166;48.692;8.182;2023-02-18T11:05:45;99582.19;;;13.47;80.49
22004;BME280;11166;48.692;8.182;2023-02-18T11:08:41;99568.34;;;13.47;80.22
22004;BME280;11166;48.692;8.182;2023-02-18T11:11:23;99569.59;;;13.51;80.33
22004;BME280;11166;48.692;8.182;2023-02-18T11:13:53;99572.19;;;13.51;78.85
22004;BME280;11166;48.692;8.182;2023-02-18T11:16:23;99567.97;;;13.50;78.77
22004;BME280;11166;48.692;8.182;2023-02-18T11:18:59;99573.19;;;13.50;78.53
22004;BME280;11166;48.692;8.182;2023-02-18T11:21:35;99574.78;;;13.51;78.18
22004;BME280;11166;48.692;8.182;2023-02-18T11:24:21;99559.53;;;13.48;78.15
22004;BME280;11166;48.692;8.182;2023-02-18T11:26:46;99552.31;;;13.50;77.16
22004;BME280;11166;48.692;8.182;2023-02-18T11:29:23;99572.38;;;13.56;77.84
22004;BME280;11166;48.692;8.182;2023-02-18T11:31:52;99563.00;;;13.62;76.77
22004;BME280;11166;48.692;8.182;2023-02-18T11:34:22;99564.00;;;13.67;76.53
22004;BME280;11166;48.692;8.182;2023-02-18T11:36:48;99554.00;;;13.77;75.21
22004;BME280;11166;48.692;8.182;2023-02-18T11:39:23;99548.00;;;13.77;75.70
22004;BME280;11166;48.692;8.182;2023-02-18T11:41:56;99547.56;;;13.73;74.82
22004;BME280;11166;48.692;8.182;2023-02-18T11:44:28;99551.59;;;13.82;74.98
22004;BME280;11166;48.692;8.182;2023-02-18T11:47:03;99543.38;;;13.85;73.51
22004;BME280;11166;48.692;8.182;2023-02-18T11:49:30;99548.59;;;13.85;74.39
22004;BME280;11166;48.692;8.182;2023-02-18T11:52:19;99543.78;;;13.76;75.51
22004;BME280;11166;48.692;8.182;2023-02-18T11:55:24;99542.78;;;13.77;75.17
22004;BME280;11166;48.692;8.182;2023-02-18T11:58:04;99531.16;;;13.79;74.63
22004;BME280;11166;48.692;8.182;2023-02-18T12:00:40;99537.19;;;13.86;74.28
22004;BME280;11166;48.692;8.182;2023-02-18T12:03:16;99544.81;;;13.88;74.08
22004;BME280;11166;48.692;8.182;2023-02-18T12:05:44;99541.59;;;13.86;74.94
22004;BME280;11166;48.692;8.182;2023-02-18T12:08:16;99540.38;;;13.88;75.10
22004;BME280;11166;48.692;8.182;2023-02-18T12:10:49;99538.41;;;13.91;73.77
22004;BME280;11166;48.692;8.182;2023-02-18T12:14:11;99543.22;;;13.94;74.07
22004;BME280;11166;48.692;8.182;2023-02-18T12:19:35;99533.16;;;13.84;75.05
22004;BME280;11166;48.692;8.182;2023-02-18T12:30:57;99534.16;;;13.96;73.81
22004;BME280;11166;48.692;8.182;2023-02-18T12:33:53;99524.75;;;13.88;74.36
22004;BME280;11166;48.692;8.182;2023-02-18T12:44:31;99562.22;;;13.81;75.26
22004;BME280;11166;48.692;8.182;2023-02-18T12:47:13;99524.91;;;13.80;75.20
22004;BME280;11166;48.692;8.182;2023-02-18T12:52:50;99496.44;;;13.85;75.08
22004;BME280;11166;48.692;8.182;2023-02-18T13:12:01;99493.03;;;13.92;74.20
22004;BME280;11166;48.692;8.182;2023-02-18T13:14:45;99499.25;;;13.91;74.08
22004;BME280;11166;48.692;8.182;2023-02-18T13:17:15;99486.81;;;13.93;73.75
22004;BME280;11166;48.692;8.182;2023-02-18T13:20:19;99492.84;;;13.93;73.61
22004;BME280;11166;48.692;8.182;2023-02-18T13:22:46;99485.22;;;13.92;74.77
22004;BME280;11166;48.692;8.182;2023-02-18T13:25:15;99488.81;;;13.91;73.90
22004;BME280;11166;48.692;8.182;2023-02-18T13:28:05;99495.03;;;13.90;74.15
22004;BME280;11166;48.692;8.182;2023-02-18T13:39:06;99497.84;;;13.95;73.79
22004;BME280;11166;48.692;8.182;2023-02-18T13:41:38;99497.25;;;13.93;72.82
22004;BME280;11166;48.692;8.182;2023-02-18T13:44:32;99490.63;;;13.97;71.58
22004;BME280;11166;48.692;8.182;2023-02-18T13:46:56;99495.63;;;13.98;70.52
22004;BME280;11166;48.692;8.182;2023-02-18T13:49:32;99484.22;;;13.93;71.13
22004;BME280;11166;48.692;8.182;2023-02-18T13:51:59;99492.22;;;13.84;74.85
22004;BME280;11166;48.692;8.182;2023-02-18T13:54:33;99496.41;;;13.66;77.05
22004;BME280;11166;48.692;8.182;2023-02-18T13:57:12;99503.97;;;13.47;78.56
22004;BME280;11166;48.692;8.182;2023-02-18T13:59:43;99495.47;;;13.26;80.20
22004;BME280;11166;48.692;8.182;2023-02-18T14:10:04;99506.38;;;13.01;82.54
22004;BME280;11166;48.692;8.182;2023-02-18T14:12:46;99488.53;;;12.98;81.97
22004;BME280;11166;48.692;8.182;2023-02-18T14:23:11;99475.19;;;13.14;82.00
22004;BME280;11166;48.692;8.182;2023-02-18T14:25:40;99481.25;;;13.22;80.02
22004;BME280;11166;48.692;8.182;2023-02-18T14:28:35;99490.44;;;13.18;79.86
22004;BME280;11166;48.692;8.182;2023-02-18T14:33:33;99482.59;;;13.11;80.60
22004;BME280;11166;48.692;8.182;2023-02-18T14:38:45;99484.63;;;13.15;80.12
22004;BME280;11166;48.692;8.182;2023-02-18T14:51:41;99473.97;;;13.10;81.69
22004;BME280;11166;48.692;8.182;2023-02-18T14:54:14;99473.19;;;13.16;80.63
22004;BME280;11166;48.692;8.182;2023-02-18T14:56:51;99473.19;;;13.16;81.51
22004;BME280;11166;48.692;8.182;2023-02-18T14:59:17;99477.41;;;13.18;80.14
22004;BME280;11166;48.692;8.182;2023-02-18T15:01:45;99482.16;;;13.14;81.14
22004;BME280;11166;48.692;8.182;2023-02-18T15:04:13;99472.97;;;13.11;80.88
22004;BME280;11166;48.692;8.182;2023-02-18T15:06:39;99479.97;;;13.11;81.38
22004;BME280;11166;48.692;8.182;2023-02-18T15:09:17;99476.34;;;13.12;81.63
22004;BME280;11166;48.692;8.182;2023-02-18T15:11:50;99476.00;;;13.15;80.37